createdAt,value
2023-03-18T00:00:36.879Z,9.10
2023-03-18T00:03:03.751Z,8.43
2023-03-18T00:05:31.191Z,8.20
2023-03-18T00:07:58.086Z,8.27
2023-03-18T00:10:24.984Z,7.47
2023-03-18T00:12:53.470Z,8.57
2023-03-18T00:15:20.117Z,8.00
2023-03-18T00:17:46.996Z,7.87
2023-03-18T00:20:13.895Z,8.37
2023-03-18T00:22:40.970Z,8.17
2023-03-18T00:25:08.084Z,7.33
2023-03-18T00:27:35.114Z,7.90
2023-03-18T00:30:02.013Z,5.53
2023-03-18T00:32:29.139Z,8.57
2023-03-18T00:34:56.985Z,7.50
2023-03-18T00:37:34.781Z,7.57
2023-03-18T00:40:06.371Z,8.07
2023-03-18T00:42:40.340Z,8.10
2023-03-18T00:45:11.171Z,8.57
2023-03-18T00:47:38.668Z,8.37
2023-03-18T00:50:06.289Z,8.60
2023-03-18T00:52:33.774Z,9.20
2023-03-18T00:55:00.794Z,8.13
2023-03-18T00:57:29.497Z,7.87
2023-03-18T00:59:57.152Z,8.33
2023-03-18T01:02:24.999Z,8.67
2023-03-18T01:04:51.761Z,7.73
2023-03-18T01:07:18.652Z,8.17
2023-03-18T01:09:45.292Z,7.83
2023-03-18T01:12:12.186Z,7.27
2023-03-18T01:14:39.522Z,8.17
2023-03-18T01:17:07.635Z,7.93
2023-03-18T01:19:34.438Z,8.50
2023-03-18T01:22:01.491Z,8.50
2023-03-18T01:24:28.818Z,7.97
2023-03-18T01:26:55.553Z,6.90
2023-03-18T01:29:23.897Z,8.40
2023-03-18T01:31:51.403Z,7.53
2023-03-18T01:34:18.266Z,7.30
2023-03-18T01:36:49.952Z,8.10
2023-03-18T01:39:18.082Z,8.40
2023-03-18T01:41:45.154Z,7.40
2023-03-18T02:16:25.809Z,6.73
2023-03-18T02:18:56.503Z,7.30
2023-03-18T02:21:35.263Z,7.63
2023-03-18T02:24:11.984Z,5.90
2023-03-18T02:26:38.897Z,7.67
2023-03-18T02:29:06.639Z,7.20
2023-03-18T02:31:43.571Z,6.60
2023-03-18T02:34:10.451Z,7.17
2023-03-18T02:36:37.947Z,7.70
2023-03-18T02:39:12.270Z,6.43
2023-03-18T02:41:38.885Z,7.23
2023-03-18T02:44:05.634Z,6.83
2023-03-18T02:46:55.392Z,8.03
2023-03-18T02:49:22.847Z,6.90
2023-03-18T02:51:50.450Z,7.17
2023-03-18T02:54:21.445Z,6.47
2023-03-18T02:56:48.213Z,7.37
2023-03-18T02:59:15.307Z,7.83
2023-03-18T03:01:43.163Z,7.43
2023-03-18T03:04:09.932Z,6.90
2023-03-18T03:06:36.784Z,7.43
2023-03-18T03:09:04.442Z,6.73
2023-03-18T03:11:31.301Z,7.97
2023-03-18T03:14:08.677Z,7.27
2023-03-18T03:16:36.274Z,8.10
2023-03-18T03:19:02.872Z,6.10
2023-03-18T03:21:30.858Z,7.87
2023-03-18T03:23:58.364Z,7.20
2023-03-18T03:26:25.067Z,7.33
2023-03-18T03:28:52.179Z,7.50
2023-03-18T03:31:20.838Z,8.10
2023-03-18T03:33:47.961Z,7.73
2023-03-18T03:36:15.592Z,7.63
2023-03-18T03:38:42.493Z,8.73
2023-03-18T03:41:12.364Z,7.83
2023-03-18T03:43:41.260Z,7.23
2023-03-18T03:46:08.452Z,8.03
2023-03-18T03:48:36.513Z,8.60
2023-03-18T03:51:04.272Z,8.30
2023-03-18T03:53:30.913Z,7.43
2023-03-18T03:55:59.252Z,7.43
2023-03-18T03:58:26.552Z,7.73
2023-03-18T04:00:53.811Z,7.87
2023-03-18T04:03:20.381Z,7.60
2023-03-18T04:05:47.873Z,7.23
2023-03-18T04:08:17.042Z,7.37
2023-03-18T04:10:43.792Z,7.00
2023-03-18T04:13:10.495Z,7.63
2023-03-18T04:15:40.060Z,7.77
2023-03-18T04:18:10.234Z,8.07
2023-03-18T04:20:38.132Z,7.40
2023-03-18T04:23:12.988Z,8.03
2023-03-18T04:25:40.243Z,6.90
2023-03-18T04:28:06.872Z,7.73
2023-03-18T04:30:34.116Z,8.10
2023-03-18T04:33:06.154Z,8.23
2023-03-18T04:35:34.179Z,7.90
2023-03-18T04:38:00.924Z,7.60
2023-03-18T04:40:28.679Z,6.83
2023-03-18T04:42:55.958Z,8.13
2023-03-18T04:45:25.674Z,8.60
2023-03-18T04:47:55.744Z,7.93
2023-03-18T04:50:22.963Z,7.60
2023-03-18T04:52:50.138Z,6.90
2023-03-18T04:55:21.964Z,7.63
2023-03-18T04:57:50.636Z,8.17
2023-03-18T05:00:23.766Z,8.47
2023-03-18T05:02:57.599Z,8.40
2023-03-18T05:05:26.254Z,8.70
2023-03-18T05:07:53.580Z,8.07
2023-03-18T05:10:21.485Z,8.03
2023-03-18T05:12:48.999Z,7.70
2023-03-18T05:15:19.720Z,7.13
2023-03-18T05:17:54.333Z,7.83
2023-03-18T05:20:21.564Z,7.73
2023-03-18T05:22:49.408Z,7.70
2023-03-18T05:25:27.177Z,6.93
2023-03-18T05:27:54.678Z,7.17
2023-03-18T05:30:30.354Z,8.00
2023-03-18T05:32:57.204Z,8.10
2023-03-18T05:35:39.456Z,7.80
2023-03-18T05:38:07.548Z,7.80
2023-03-18T05:40:34.385Z,7.27
2023-03-18T05:43:10.586Z,8.17
2023-03-18T05:45:44.310Z,7.23
2023-03-18T05:48:14.359Z,8.13
2023-03-18T05:50:49.444Z,7.87
2023-03-18T05:53:20.017Z,8.10
2023-03-18T05:55:53.308Z,8.10
2023-03-18T05:58:21.973Z,7.67
2023-03-18T06:00:54.934Z,7.13
2023-03-18T06:03:21.956Z,7.87
2023-03-18T06:05:49.355Z,7.03
2023-03-18T06:08:17.784Z,7.83
2023-03-18T06:10:44.534Z,7.23
2023-03-18T06:13:11.612Z,7.50
2023-03-18T06:15:38.809Z,7.87
2023-03-18T06:18:06.276Z,7.13
2023-03-18T06:20:33.804Z,7.53
2023-03-18T06:23:00.588Z,7.00
2023-03-18T06:25:27.811Z,7.83
2023-03-18T06:27:54.854Z,7.97
2023-03-18T06:30:26.114Z,6.63
2023-03-18T06:32:53.537Z,7.03
2023-03-18T06:35:26.740Z,7.87
2023-03-18T06:37:54.296Z,6.87
2023-03-18T06:40:22.362Z,7.50
2023-03-18T06:42:50.191Z,7.40
2023-03-18T06:45:33.177Z,6.93
2023-03-18T06:48:05.067Z,6.70
2023-03-18T06:50:34.789Z,7.50
2023-03-18T06:53:02.139Z,7.47
2023-03-18T06:55:32.288Z,7.00
2023-03-18T06:57:59.560Z,7.43
2023-03-18T07:00:34.528Z,6.60
2023-03-18T07:03:01.988Z,7.47
2023-03-18T07:05:29.128Z,6.87
2023-03-18T07:07:55.871Z,7.87
2023-03-18T07:10:27.946Z,7.73
2023-03-18T07:13:01.791Z,7.10
2023-03-18T07:15:28.862Z,7.50
2023-03-18T07:17:57.315Z,7.23
2023-03-18T07:20:24.122Z,7.50
2023-03-18T07:22:51.596Z,7.47
2023-03-18T07:25:21.109Z,6.70
2023-03-18T07:27:48.459Z,7.20
2023-03-18T07:30:15.959Z,7.00
2023-03-18T07:32:43.559Z,8.07
2023-03-18T07:35:14.252Z,7.67
2023-03-18T07:37:41.630Z,7.23
2023-03-18T07:40:09.236Z,7.20
2023-03-18T07:42:36.449Z,8.00
2023-03-18T07:45:03.020Z,7.97
2023-03-18T07:47:31.436Z,6.70
2023-03-18T07:49:58.034Z,7.87
2023-03-18T07:52:28.479Z,6.83
2023-03-18T07:54:56.586Z,7.10
2023-03-18T07:57:48.541Z,6.80
2023-03-18T08:00:20.958Z,6.80
2023-03-18T08:02:48.811Z,7.00
2023-03-18T08:05:16.219Z,7.17
2023-03-18T08:07:43.066Z,7.70
2023-03-18T08:10:10.113Z,7.50
2023-03-18T08:12:51.547Z,7.10
2023-03-18T08:15:18.945Z,8.37
2023-03-18T08:17:45.751Z,7.27
2023-03-18T08:20:12.834Z,7.30
2023-03-18T08:22:39.620Z,7.07
2023-03-18T08:25:07.688Z,7.17
2023-03-18T08:27:34.844Z,7.30
2023-03-18T08:30:03.757Z,7.37
2023-03-18T08:32:30.865Z,7.13
2023-03-18T08:34:58.207Z,7.87
2023-03-18T08:37:25.217Z,7.03
2023-03-18T08:39:52.229Z,7.57
2023-03-18T08:42:19.285Z,7.40
2023-03-18T08:44:45.918Z,7.20
2023-03-18T08:47:12.614Z,7.30
2023-03-18T08:49:39.453Z,7.10
2023-03-18T08:52:07.023Z,7.83
2023-03-18T08:54:33.686Z,6.93
2023-03-18T08:57:00.750Z,7.17
2023-03-18T08:59:27.468Z,7.40
2023-03-18T09:01:54.129Z,7.27
2023-03-18T09:04:20.790Z,7.50
2023-03-18T09:06:48.905Z,6.77
2023-03-18T09:09:15.716Z,7.37
2023-03-18T09:11:42.443Z,6.67
2023-03-18T09:14:09.185Z,7.67
2023-03-18T09:16:36.428Z,7.60
2023-03-18T09:19:03.814Z,6.73
2023-03-18T09:21:31.730Z,6.50
2023-03-18T09:23:59.230Z,7.03
2023-03-18T09:26:26.218Z,6.43
2023-03-18T09:28:52.881Z,5.80
2023-03-18T09:31:19.780Z,6.80
2023-03-18T09:33:47.183Z,6.57
2023-03-18T09:36:14.110Z,6.80
2023-03-18T09:38:41.489Z,6.63
2023-03-18T09:41:11.006Z,6.80
2023-03-18T09:43:58.699Z,6.23
2023-03-18T09:46:28.585Z,6.57
2023-03-18T09:49:13.523Z,5.80
2023-03-18T09:52:09.355Z,6.07
2023-03-18T09:54:39.170Z,6.70
2023-03-18T09:57:06.219Z,5.83
2023-03-18T09:59:32.897Z,6.53
2023-03-18T10:02:00.170Z,6.20
2023-03-18T10:04:47.706Z,6.83
2023-03-18T10:07:16.933Z,6.10
2023-03-18T10:09:45.976Z,6.37
2023-03-18T10:12:22.190Z,9.70
2023-03-18T10:14:57.246Z,6.70
2023-03-18T10:17:50.821Z,6.13
2023-03-18T10:20:26.232Z,6.70
2023-03-18T10:23:06.763Z,6.73
2023-03-18T10:25:38.161Z,6.50
2023-03-18T10:28:23.558Z,6.30
2023-03-18T10:31:01.840Z,6.60
2023-03-18T10:33:48.600Z,7.17
2023-03-18T10:36:28.860Z,7.33
2023-03-18T10:38:56.353Z,7.03
2023-03-18T10:41:25.883Z,7.03
2023-03-18T10:43:54.063Z,7.60
2023-03-18T10:46:22.270Z,8.17
2023-03-18T10:48:51.181Z,7.53
2023-03-18T10:51:29.470Z,9.50
2023-03-18T10:54:02.715Z,7.97
2023-03-18T10:56:29.733Z,12.30
2023-03-18T10:58:57.605Z,10.13
2023-03-18T11:01:25.373Z,10.27
2023-03-18T11:04:12.534Z,8.13
2023-03-18T11:06:59.468Z,9.63
2023-03-18T11:09:31.072Z,7.23
2023-03-18T11:11:58.122Z,7.23
2023-03-18T11:14:29.045Z,8.37
2023-03-18T11:17:03.034Z,14.70
2023-03-18T11:19:29.900Z,8.40
2023-03-18T11:22:19.893Z,7.93
2023-03-18T11:24:46.963Z,6.93
2023-03-18T11:27:14.040Z,7.87
2023-03-18T11:29:41.607Z,6.63
2023-03-18T11:32:11.948Z,5.67
2023-03-18T11:34:38.792Z,6.03
2023-03-18T11:37:06.500Z,6.23
2023-03-18T11:39:37.721Z,6.40
2023-03-18T11:42:11.173Z,6.97
2023-03-18T11:44:37.885Z,6.70
2023-03-18T11:47:07.745Z,5.87
2023-03-18T11:49:34.772Z,6.97
2023-03-18T11:52:04.461Z,6.63
2023-03-18T11:54:51.390Z,6.77
2023-03-18T11:57:20.393Z,6.33
2023-03-18T11:59:47.758Z,6.83
2023-03-18T12:02:17.652Z,6.57
2023-03-18T12:04:48.842Z,6.60
2023-03-18T12:07:36.396Z,7.33
2023-03-18T12:10:15.196Z,6.33
2023-03-18T12:13:05.332Z,7.40
2023-03-18T12:15:41.515Z,7.07
2023-03-18T12:18:09.111Z,6.13
2023-03-18T12:20:49.647Z,6.87
2023-03-18T12:23:35.534Z,7.00
2023-03-18T12:26:05.473Z,7.27
2023-03-18T12:28:34.706Z,7.40
2023-03-18T12:31:20.556Z,7.87
2023-03-18T12:33:51.016Z,7.43
2023-03-18T12:36:36.380Z,7.33
2023-03-18T12:39:22.301Z,6.80
2023-03-18T12:42:10.935Z,6.60
2023-03-18T12:44:38.012Z,7.70
2023-03-18T12:47:17.051Z,7.50
2023-03-18T12:49:46.770Z,7.50
2023-03-18T12:52:24.567Z,7.70
2023-03-18T12:54:55.760Z,7.90
2023-03-18T12:57:32.597Z,7.50
2023-03-18T13:00:01.998Z,7.90
2023-03-18T13:02:48.066Z,10.10
2023-03-18T13:05:18.559Z,9.63
2023-03-18T13:07:46.961Z,10.03
2023-03-18T13:10:16.482Z,8.90
2023-03-18T13:12:43.497Z,7.13
2023-03-18T13:15:33.354Z,6.33
2023-03-18T13:18:02.898Z,6.90
2023-03-18T13:20:30.070Z,6.40
2023-03-18T13:23:07.107Z,6.63
2023-03-18T13:25:52.177Z,7.20
2023-03-18T13:28:25.703Z,7.20
2023-03-18T13:30:52.502Z,7.37
2023-03-18T13:33:25.176Z,4.33
2023-03-18T13:35:52.528Z,7.70
2023-03-18T13:38:19.215Z,7.33
2023-03-18T13:41:04.836Z,7.93
2023-03-18T13:43:35.478Z,6.93
2023-03-18T13:46:02.339Z,7.27
2023-03-18T13:48:33.842Z,7.03
2023-03-18T13:51:14.040Z,7.27
2023-03-18T13:53:41.560Z,7.27
2023-03-18T13:56:25.947Z,6.67
2023-03-18T13:58:53.731Z,6.87
2023-03-18T14:01:28.783Z,7.27
2023-03-18T14:03:56.404Z,5.47
2023-03-18T14:06:43.278Z,7.23
2023-03-18T14:09:40.157Z,7.20
2023-03-18T14:12:20.654Z,6.53
2023-03-18T14:14:51.484Z,7.50
2023-03-18T14:17:33.804Z,5.87
2023-03-18T14:20:21.389Z,7.00
2023-03-18T14:22:49.923Z,6.73
2023-03-18T14:25:38.970Z,6.50
2023-03-18T14:28:09.418Z,7.07
2023-03-18T14:30:37.000Z,7.30
2023-03-18T14:33:28.329Z,6.97
2023-03-18T14:35:59.468Z,7.13
2023-03-18T14:38:40.802Z,7.33
2023-03-18T14:41:17.479Z,6.97
2023-03-18T14:43:51.810Z,7.33
2023-03-18T14:46:21.586Z,8.00
2023-03-18T14:48:53.681Z,7.17
2023-03-18T14:51:20.841Z,7.57
2023-03-18T14:53:59.144Z,7.43
2023-03-18T14:56:29.074Z,8.17
2023-03-18T14:58:56.614Z,9.40
2023-03-18T15:01:34.670Z,5.90
2023-03-18T15:04:02.010Z,5.73
2023-03-18T15:06:29.309Z,7.53
2023-03-18T15:09:22.856Z,7.80
2023-03-18T15:11:49.910Z,7.83
2023-03-18T15:14:19.570Z,7.87
2023-03-18T15:16:56.651Z,8.20
2023-03-18T15:19:23.863Z,7.93
2023-03-18T15:21:50.760Z,8.20
2023-03-18T15:24:20.945Z,8.90
2023-03-18T15:26:55.966Z,8.00
2023-03-18T15:29:29.736Z,8.10
2023-03-18T15:32:15.127Z,7.37
2023-03-18T15:34:42.673Z,8.17
2023-03-18T15:37:46.142Z,8.10
2023-03-18T15:40:17.178Z,8.70
2023-03-18T15:42:45.518Z,8.30
2023-03-18T15:45:17.482Z,8.50
2023-03-18T15:47:44.468Z,8.70
2023-03-18T15:50:19.958Z,8.93
2023-03-18T15:52:47.511Z,8.97
2023-03-18T15:55:25.014Z,7.53
2023-03-18T15:57:53.222Z,8.50
2023-03-18T16:00:20.754Z,8.40
2023-03-18T16:02:47.813Z,8.70
2023-03-18T16:05:24.672Z,8.50
2023-03-18T16:07:54.325Z,9.97
2023-03-18T16:10:23.238Z,8.23
2023-03-18T16:12:51.594Z,8.90
2023-03-18T16:15:22.605Z,9.30
2023-03-18T16:17:50.352Z,9.20
2023-03-18T16:20:18.743Z,9.37
2023-03-18T16:22:45.785Z,9.20
2023-03-18T16:25:13.934Z,9.13
2023-03-18T16:27:45.562Z,9.50
2023-03-18T16:30:17.893Z,9.53
2023-03-18T16:32:45.237Z,9.20
2023-03-18T16:35:19.618Z,9.93
2023-03-18T16:37:48.107Z,10.07
2023-03-18T16:40:17.212Z,9.23
2023-03-18T16:42:44.603Z,9.93
2023-03-18T16:45:24.619Z,10.30
2023-03-18T16:47:52.220Z,9.47
2023-03-18T16:50:20.078Z,9.80
2023-03-18T16:52:48.384Z,10.20
2023-03-18T16:55:16.628Z,10.90
2023-03-18T16:58:02.287Z,10.80
2023-03-18T17:00:33.186Z,10.80
2023-03-18T17:03:00.748Z,11.83
2023-03-18T17:05:27.943Z,10.80
2023-03-18T17:07:55.297Z,11.27
2023-03-18T17:10:22.965Z,11.27
2023-03-18T17:12:54.398Z,11.50
2023-03-18T17:15:22.885Z,11.00
2023-03-18T17:17:49.825Z,11.73
2023-03-18T17:20:19.741Z,10.93
2023-03-18T17:22:47.201Z,12.00
2023-03-18T17:25:14.436Z,10.90
2023-03-18T17:27:44.386Z,11.50
2023-03-18T17:30:21.771Z,12.73
2023-03-18T17:32:48.877Z,11.03
2023-03-18T17:35:17.798Z,11.70
2023-03-18T17:37:46.107Z,11.87
2023-03-18T17:40:13.677Z,11.07
2023-03-18T17:42:41.149Z,12.07
2023-03-18T17:45:32.604Z,11.90
2023-03-18T17:48:09.729Z,12.07
2023-03-18T17:50:37.007Z,11.80
2023-03-18T17:53:04.593Z,12.27
2023-03-18T17:55:32.595Z,12.80
2023-03-18T17:58:00.132Z,12.63
2023-03-18T18:00:27.485Z,12.50
2023-03-18T18:03:00.514Z,12.27
2023-03-18T18:05:27.659Z,12.70
2023-03-18T18:07:54.736Z,12.63
2023-03-18T18:10:23.158Z,12.27
2023-03-18T18:12:50.293Z,13.27
2023-03-18T18:15:21.226Z,13.90
2023-03-18T18:18:08.656Z,12.97
2023-03-18T18:20:35.577Z,13.13
2023-03-18T18:23:03.216Z,13.07
2023-03-18T18:25:30.986Z,13.27
2023-03-18T18:27:58.149Z,13.60
2023-03-18T18:30:26.318Z,13.57
2023-03-18T18:32:54.870Z,14.57
2023-03-18T18:35:22.187Z,13.37
2023-03-18T18:37:49.871Z,14.17
2023-03-18T18:40:17.108Z,14.10
2023-03-18T18:42:45.064Z,14.70
2023-03-18T18:45:16.136Z,13.97
2023-03-18T18:47:43.086Z,16.57
2023-03-18T18:50:15.466Z,14.00
2023-03-18T18:52:47.312Z,13.90
2023-03-18T18:55:14.445Z,13.50
2023-03-18T18:57:44.434Z,13.37
2023-03-18T19:00:22.043Z,13.57
2023-03-18T19:02:50.680Z,14.87
2023-03-18T19:05:19.471Z,14.00
2023-03-18T19:07:46.761Z,13.63
2023-03-18T19:10:15.073Z,14.33
2023-03-18T19:12:42.881Z,14.70
2023-03-18T19:15:15.342Z,14.53
2023-03-18T19:17:44.170Z,13.33
2023-03-18T19:20:20.832Z,13.77
2023-03-18T19:22:47.703Z,13.40
2023-03-18T19:25:14.875Z,13.77
2023-03-18T19:27:42.259Z,16.53
2023-03-18T19:30:18.395Z,19.93
2023-03-18T19:32:45.919Z,20.20
2023-03-18T19:35:13.321Z,24.87
2023-03-18T19:37:43.118Z,18.70
2023-03-18T19:40:34.427Z,18.77
2023-03-18T19:43:01.356Z,20.73
2023-03-18T19:45:30.240Z,20.10
2023-03-18T19:47:57.345Z,20.07
2023-03-18T19:50:24.069Z,20.40
2023-03-18T19:52:51.118Z,19.30
2023-03-18T19:55:17.999Z,17.43
2023-03-18T19:57:46.970Z,18.17
2023-03-18T20:00:24.856Z,18.53
2023-03-18T20:02:54.706Z,18.63
2023-03-18T20:05:22.094Z,17.13
2023-03-18T20:07:50.503Z,18.60
2023-03-18T20:10:18.173Z,19.10
2023-03-18T20:12:45.888Z,20.63
2023-03-18T20:15:13.984Z,21.60
2023-03-18T20:17:41.585Z,22.33
2023-03-18T20:20:14.763Z,21.60
2023-03-18T20:22:42.378Z,20.87
2023-03-18T20:25:12.271Z,20.80
2023-03-18T20:27:39.361Z,21.23
2023-03-18T20:30:10.578Z,22.53
2023-03-18T20:32:37.910Z,21.53
2023-03-18T20:35:06.051Z,19.93
2023-03-18T20:37:36.250Z,20.73
2023-03-18T20:40:03.039Z,19.37
2023-03-18T20:42:32.596Z,20.57
2023-03-18T20:44:59.367Z,20.60
2023-03-18T20:47:26.084Z,22.03
2023-03-18T20:49:55.576Z,21.27
2023-03-18T20:52:28.956Z,19.93
2023-03-18T20:54:57.104Z,18.97
2023-03-18T20:57:24.270Z,19.20
2023-03-18T20:59:51.716Z,18.47
2023-03-18T21:02:31.484Z,19.17
2023-03-18T21:04:58.933Z,18.67
2023-03-18T21:07:26.258Z,18.37
2023-03-18T21:09:53.353Z,17.10
2023-03-18T21:12:20.792Z,17.00
2023-03-18T21:14:47.950Z,16.87
2023-03-18T21:17:19.922Z,15.57
2023-03-18T21:19:47.444Z,15.23
2023-03-18T21:22:16.470Z,15.10
2023-03-18T21:24:43.841Z,17.10
2023-03-18T21:27:15.411Z,17.67
2023-03-18T21:29:43.324Z,16.00
2023-03-18T21:32:12.340Z,17.20
2023-03-18T21:34:39.138Z,17.93
2023-03-18T21:37:10.106Z,16.67
2023-03-18T21:39:37.265Z,15.90
2023-03-18T21:42:04.111Z,16.40
2023-03-18T21:44:31.124Z,15.27
2023-03-18T21:46:59.153Z,16.07
2023-03-18T21:49:26.307Z,15.73
2023-03-18T21:51:53.116Z,14.37
2023-03-18T21:54:19.963Z,15.37
2023-03-18T21:56:46.660Z,16.20
2023-03-18T21:59:13.347Z,16.23
2023-03-18T22:01:40.348Z,15.57
2023-03-18T22:04:07.193Z,15.13
2023-03-18T22:06:34.484Z,15.40
2023-03-18T22:09:01.340Z,16.03
2023-03-18T22:11:28.127Z,15.40
2023-03-18T22:13:55.355Z,15.33
2023-03-18T22:16:22.244Z,15.43
2023-03-18T22:18:49.235Z,15.40
2023-03-18T22:21:19.930Z,15.07
2023-03-18T22:23:48.232Z,15.97
2023-03-18T22:26:16.232Z,15.30
2023-03-18T22:28:44.192Z,15.50
2023-03-18T22:31:18.535Z,16.30
2023-03-18T22:33:46.599Z,16.60
2023-03-18T22:36:14.057Z,16.17
2023-03-18T22:38:41.200Z,16.70
2023-03-18T22:41:12.787Z,17.40
2023-03-18T22:43:39.693Z,16.80
2023-03-18T22:46:07.234Z,17.30
2023-03-18T22:48:34.177Z,17.33
2023-03-18T22:51:01.507Z,17.33
2023-03-18T22:53:32.633Z,16.70
2023-03-18T22:56:00.855Z,16.83
2023-03-18T22:58:27.635Z,17.63
2023-03-18T23:00:54.500Z,15.97
2023-03-18T23:03:22.707Z,16.60
2023-03-18T23:05:50.763Z,16.47
2023-03-18T23:08:17.998Z,17.10
2023-03-18T23:10:44.873Z,17.00
2023-03-18T23:13:13.202Z,15.97
2023-03-18T23:15:40.168Z,16.03
2023-03-18T23:18:08.172Z,16.73
2023-03-18T23:20:35.032Z,15.20
2023-03-18T23:23:01.958Z,16.23
2023-03-18T23:25:28.707Z,16.70
2023-03-18T23:27:55.379Z,17.37
2023-03-18T23:30:22.146Z,16.27
2023-03-18T23:32:48.932Z,18.63
2023-03-18T23:35:16.873Z,17.57
2023-03-18T23:37:43.606Z,19.93
2023-03-18T23:40:10.622Z,18.90
2023-03-18T23:42:37.467Z,18.90
2023-03-18T23:45:05.343Z,18.57
2023-03-18T23:47:31.971Z,19.20
2023-03-18T23:49:58.604Z,20.80
2023-03-18T23:52:25.327Z,18.53
2023-03-18T23:54:52.002Z,20.30
2023-03-18T23:57:18.606Z,19.33
2023-03-18T23:59:45.372Z,19.57
